Cedarvale, New Mexico
Current Conditions -  °F | °C
As of 1:53 AM on Saturday 22 Nov 2014 (Local Time) from KCQC Reporting Station
Clear Clear  
Wind Chill: 19°   Ceiling: Unl
Heat Index: 29°   Visibility: 10mi
Dew Point: 17°   Wind: 13mph
Humidity: 61%   Direction: 300°WNW
Pressure: 30.06"   Gusts: NA
Location:  34.37°N, 105.7°W
Report Text: KCQC 220853Z AUTO 30011KT 10SM CLR M02/M08 A3006 RMK AO2 SLP158 T10171083 58004
Loading
Personal Weather Stations






























Interactive Weather Map New forecast layout! Learn more

10-Day Weather Forecast

Advertisements
Track Severe Weather on mobile